createdAt,value
2022-12-18T00:01:34.061Z,95590.84
2022-12-18T00:04:00.630Z,95582.31
2022-12-18T00:06:27.093Z,95595.22
2022-12-18T00:08:54.785Z,95579.94
2022-12-18T00:11:21.352Z,95583.44
2022-12-18T00:13:47.762Z,95579.94
2022-12-18T00:16:14.569Z,95580.31
2022-12-18T00:18:44.256Z,95584.56
2022-12-18T00:21:11.880Z,95592.28
2022-12-18T00:23:38.653Z,95584.91
2022-12-18T00:26:05.278Z,95589.44
2022-12-18T00:28:31.675Z,95592.69
2022-12-18T00:30:59.144Z,95597.56
2022-12-18T00:33:28.077Z,95588.50
2022-12-18T00:35:54.432Z,95593.72
2022-12-18T00:38:20.831Z,95601.50
2022-12-18T00:40:47.417Z,95602.13
2022-12-18T00:43:13.857Z,95595.91
2022-12-18T00:45:40.327Z,95594.88
2022-12-18T00:48:07.227Z,95600.00
2022-12-18T00:50:33.588Z,95591.34
2022-12-18T00:52:59.937Z,95589.50
2022-12-18T00:55:26.318Z,95596.66
2022-12-18T00:57:55.866Z,95598.16
2022-12-18T01:00:22.219Z,95599.09
2022-12-18T01:02:51.216Z,95601.88
2022-12-18T01:05:17.641Z,95597.06
2022-12-18T01:07:44.017Z,95604.13
2022-12-18T01:10:10.811Z,95611.09
2022-12-18T01:12:39.617Z,95611.94
2022-12-18T01:15:06.064Z,95605.59
2022-12-18T01:17:32.459Z,95618.31
2022-12-18T01:20:01.120Z,95621.72
2022-12-18T01:22:27.765Z,95627.66
2022-12-18T01:24:56.800Z,95623.31
2022-12-18T01:27:23.562Z,95625.06
2022-12-18T01:29:50.095Z,95621.69
2022-12-18T01:32:16.479Z,95622.41
2022-12-18T01:34:42.838Z,95628.44
2022-12-18T01:37:09.368Z,95633.81
2022-12-18T01:39:35.838Z,95640.13
2022-12-18T01:42:04.052Z,95639.31
2022-12-18T01:44:30.738Z,95644.97
2022-12-18T01:46:57.237Z,95659.25
2022-12-18T01:49:27.122Z,95661.47
2022-12-18T01:51:54.824Z,95662.19
2022-12-18T01:54:21.179Z,95661.09
2022-12-18T01:56:47.638Z,95665.16
2022-12-18T01:59:16.554Z,95672.03
2022-12-18T02:01:43.136Z,95667.13
2022-12-18T02:04:09.561Z,95661.94
2022-12-18T02:06:36.034Z,95658.47
2022-12-18T02:09:03.546Z,95662.78
2022-12-18T02:11:29.939Z,95666.22
2022-12-18T02:13:56.314Z,95672.44
2022-12-18T02:16:22.837Z,95672.97
2022-12-18T02:18:50.013Z,95679.66
2022-12-18T02:21:17.031Z,95667.31
2022-12-18T02:23:43.916Z,95660.28
2022-12-18T02:26:10.310Z,95666.09
2022-12-18T02:28:36.653Z,95667.75
2022-12-18T02:31:04.462Z,95671.09
2022-12-18T02:33:30.923Z,95676.22
2022-12-18T02:35:57.263Z,95672.41
2022-12-18T02:38:25.907Z,95670.56
2022-12-18T02:40:52.539Z,95672.06
2022-12-18T02:43:18.987Z,95677.78
2022-12-18T02:45:47.922Z,95679.84
2022-12-18T02:48:14.339Z,95683.72
2022-12-18T02:50:40.837Z,95683.19
2022-12-18T02:53:08.251Z,95686.41
2022-12-18T02:55:35.720Z,95687.16
2022-12-18T02:58:02.276Z,95684.66
2022-12-18T03:00:31.011Z,95683.81
2022-12-18T03:02:58.531Z,95685.22
2022-12-18T03:05:25.352Z,95677.63
2022-12-18T03:07:51.827Z,95676.50
2022-12-18T03:10:18.245Z,95671.09
2022-12-18T03:12:45.041Z,95680.31
2022-12-18T03:15:17.262Z,95674.06
2022-12-18T03:17:44.989Z,95679.38
2022-12-18T03:20:12.207Z,95678.47
2022-12-18T03:22:38.688Z,95688.91
2022-12-18T03:25:05.077Z,95699.25
2022-12-18T03:27:31.581Z,95694.06
2022-12-18T03:29:58.070Z,95699.16
2022-12-18T03:32:24.437Z,95699.28
2022-12-18T03:34:51.168Z,95691.78
2022-12-18T03:37:18.064Z,95691.97
2022-12-18T03:39:44.769Z,95685.25
2022-12-18T03:42:11.211Z,95675.81
2022-12-18T03:44:37.834Z,95678.50
2022-12-18T03:47:04.359Z,95669.28
2022-12-18T03:49:32.895Z,95681.44
2022-12-18T03:51:59.263Z,95672.88
2022-12-18T03:54:25.929Z,95679.25
2022-12-18T03:56:52.322Z,95683.34
2022-12-18T03:59:20.121Z,95681.31
2022-12-18T04:01:46.592Z,95682.69
2022-12-18T04:04:13.115Z,95683.34
2022-12-18T04:06:39.496Z,95686.41
2022-12-18T04:09:05.864Z,95686.25
2022-12-18T04:11:32.234Z,95687.81
2022-12-18T04:13:58.608Z,95686.91
2022-12-18T04:16:25.110Z,95688.66
2022-12-18T04:18:51.481Z,95685.22
2022-12-18T04:21:18.018Z,95692.47
2022-12-18T04:23:44.572Z,95697.66
2022-12-18T04:26:11.012Z,95702.25
2022-12-18T04:28:37.463Z,95696.53
2022-12-18T04:31:03.968Z,95703.38
2022-12-18T04:33:33.221Z,95715.59
2022-12-18T04:35:59.591Z,95726.38
2022-12-18T04:38:26.017Z,95725.09
2022-12-18T04:40:52.363Z,95731.38
2022-12-18T04:43:18.912Z,95726.41
2022-12-18T04:45:48.257Z,95726.28
2022-12-18T04:48:14.821Z,95730.78
2022-12-18T04:50:43.528Z,95731.53
2022-12-18T04:53:11.948Z,95736.75
2022-12-18T04:55:40.490Z,95738.31
2022-12-18T04:58:07.089Z,95729.63
2022-12-18T05:00:37.552Z,95732.09
2022-12-18T05:03:04.295Z,95726.94
2022-12-18T05:05:30.731Z,95728.56
2022-12-18T05:07:57.559Z,95726.63
2022-12-18T05:10:24.273Z,95718.47
2022-12-18T05:12:50.893Z,95722.22
2022-12-18T05:15:17.324Z,95728.78
2022-12-18T05:17:43.918Z,95738.47
2022-12-18T05:20:10.310Z,95735.88
2022-12-18T05:22:36.719Z,95722.53
2022-12-18T05:25:03.194Z,95732.22
2022-12-18T05:27:34.672Z,95728.88
2022-12-18T05:30:01.027Z,95733.34
2022-12-18T05:32:27.494Z,95731.19
2022-12-18T05:34:54.194Z,95736.84
2022-12-18T05:37:20.959Z,95731.19
2022-12-18T05:39:48.175Z,95739.34
2022-12-18T05:42:15.572Z,95745.50
2022-12-18T05:44:42.197Z,95738.53
2022-12-18T05:47:09.096Z,95739.38
2022-12-18T05:49:38.742Z,95748.97
2022-12-18T05:52:05.096Z,95748.00
2022-12-18T05:54:31.479Z,95755.09
2022-12-18T05:57:02.365Z,95760.00
2022-12-18T05:59:29.080Z,95750.81
2022-12-18T06:01:55.800Z,95758.78
2022-12-18T06:04:22.285Z,95763.78
2022-12-18T06:06:48.687Z,95770.41
2022-12-18T06:09:15.126Z,95761.38
2022-12-18T06:11:44.001Z,95769.72
2022-12-18T06:14:10.913Z,95765.63
2022-12-18T06:16:37.371Z,95763.69
2022-12-18T06:19:03.783Z,95765.38
2022-12-18T06:21:30.428Z,95769.56
2022-12-18T06:23:57.766Z,95774.00
2022-12-18T06:26:28.272Z,95774.41
2022-12-18T06:28:55.069Z,95773.41
2022-12-18T06:31:21.735Z,95782.91
2022-12-18T06:33:48.336Z,95770.78
2022-12-18T06:36:17.421Z,95781.34
2022-12-18T06:38:46.278Z,95780.16
2022-12-18T06:41:12.685Z,95779.31
2022-12-18T06:43:39.392Z,95784.03
2022-12-18T06:46:06.372Z,95791.03
2022-12-18T06:48:32.781Z,95794.81
2022-12-18T06:50:59.132Z,95795.72
2022-12-18T06:53:25.957Z,95804.59
2022-12-18T06:55:52.295Z,95804.69
2022-12-18T06:58:19.571Z,95814.91
2022-12-18T07:00:45.992Z,95818.00
2022-12-18T07:03:12.714Z,95825.69
2022-12-18T07:05:39.133Z,95826.03
2022-12-18T07:08:07.746Z,95822.69
2022-12-18T07:10:34.472Z,95829.78
2022-12-18T07:13:01.036Z,95836.16
2022-12-18T07:15:27.626Z,95834.81
2022-12-18T07:17:53.957Z,95836.03
2022-12-18T07:20:20.297Z,95831.19
2022-12-18T07:22:51.983Z,95835.28
2022-12-18T07:25:21.502Z,95840.94
2022-12-18T07:27:47.885Z,95837.78
2022-12-18T07:30:14.264Z,95835.59
2022-12-18T07:32:43.002Z,95838.44
2022-12-18T07:35:10.379Z,95842.28
2022-12-18T07:37:37.748Z,95849.72
2022-12-18T07:40:04.273Z,95845.06
2022-12-18T07:42:30.682Z,95849.16
2022-12-18T07:44:57.192Z,95843.63
2022-12-18T07:47:24.669Z,95841.03
2022-12-18T07:49:53.544Z,95850.97
2022-12-18T07:52:25.577Z,95855.69
2022-12-18T07:54:52.414Z,95857.75
2022-12-18T07:57:41.853Z,95854.06
2022-12-18T08:00:05.132Z,95848.66
2022-12-18T08:02:31.865Z,95854.06
2022-12-18T08:05:01.633Z,95862.25
2022-12-18T08:07:29.833Z,95859.13
2022-12-18T08:09:56.568Z,95869.56
2022-12-18T08:12:23.468Z,95876.59
2022-12-18T08:14:53.423Z,95878.97
2022-12-18T08:17:20.111Z,95889.28
2022-12-18T08:19:46.505Z,95881.31
2022-12-18T08:22:12.985Z,95878.09
2022-12-18T08:24:39.339Z,95877.53
2022-12-18T08:27:28.476Z,95876.19
2022-12-18T08:29:53.580Z,95878.34
2022-12-18T08:32:21.244Z,95868.06
2022-12-18T08:34:47.854Z,95867.34
2022-12-18T08:37:22.797Z,95877.13
2022-12-18T08:39:49.416Z,95867.22
2022-12-18T08:42:16.045Z,95864.88
2022-12-18T08:44:43.981Z,95862.25
2022-12-18T08:47:10.729Z,95854.75
2022-12-18T08:49:37.309Z,95853.59
2022-12-18T08:52:03.873Z,95859.06
2022-12-18T08:54:32.806Z,95865.00
2022-12-18T08:56:59.264Z,95870.69
2022-12-18T08:59:25.869Z,95867.03
2022-12-18T09:02:00.167Z,95858.16
2022-12-18T09:04:27.992Z,95860.22
2022-12-18T09:06:56.756Z,95858.28
2022-12-18T09:09:23.129Z,95858.50
2022-12-18T09:11:50.036Z,95862.28
2022-12-18T09:14:18.790Z,95864.72
2022-12-18T09:16:45.235Z,95862.50
2022-12-18T09:19:11.650Z,95878.63
2022-12-18T09:21:38.021Z,95881.88
2022-12-18T09:24:08.632Z,95880.88
2022-12-18T09:26:35.750Z,95883.47
2022-12-18T09:29:02.160Z,95872.25
2022-12-18T09:31:28.807Z,95874.09
2022-12-18T09:33:55.420Z,95880.25
2022-12-18T09:36:21.891Z,95888.06
2022-12-18T09:38:48.384Z,95890.53
2022-12-18T09:41:15.844Z,95894.25
2022-12-18T09:43:42.409Z,95882.94
2022-12-18T09:46:08.943Z,95879.41
2022-12-18T09:48:35.908Z,95887.19
2022-12-18T09:51:06.599Z,95887.00
2022-12-18T09:53:32.948Z,95893.00
2022-12-18T09:56:01.530Z,95889.13
2022-12-18T09:58:30.028Z,95889.63
2022-12-18T10:00:56.937Z,95888.16
2022-12-18T10:03:23.434Z,95888.09
2022-12-18T10:05:52.336Z,95893.94
2022-12-18T10:08:18.683Z,95899.72
2022-12-18T10:10:45.058Z,95892.41
2022-12-18T10:13:13.669Z,95889.66
2022-12-18T10:15:40.248Z,95885.78
2022-12-18T10:18:06.614Z,95885.25
2022-12-18T10:20:32.997Z,95878.13
2022-12-18T10:23:00.379Z,95866.56
2022-12-18T10:25:28.182Z,95868.09
2022-12-18T10:27:54.787Z,95861.72
2022-12-18T10:30:21.135Z,95858.78
2022-12-18T10:32:47.515Z,95855.53
2022-12-18T10:35:14.180Z,95862.09
2022-12-18T10:37:40.870Z,95855.13
2022-12-18T10:40:08.055Z,95852.13
2022-12-18T10:42:36.557Z,95857.84
2022-12-18T10:45:04.131Z,95844.28
2022-12-18T10:47:30.521Z,95838.44
2022-12-18T10:49:56.901Z,95841.06
2022-12-18T10:52:24.410Z,95842.22
2022-12-18T10:54:50.823Z,95849.81
2022-12-18T10:57:17.267Z,95854.75
2022-12-18T10:59:43.627Z,95851.47
2022-12-18T11:02:11.211Z,95857.94
2022-12-18T11:04:37.628Z,95864.34
2022-12-18T11:07:05.063Z,95847.22
2022-12-18T11:09:31.688Z,95852.94
2022-12-18T11:12:00.498Z,95851.50
2022-12-18T11:14:27.296Z,95858.66
2022-12-18T11:19:40.406Z,95850.72
2022-12-18T11:22:06.855Z,95844.22
2022-12-18T11:24:33.198Z,95851.63
2022-12-18T11:27:00.207Z,95849.38
2022-12-18T11:29:26.602Z,95844.50
2022-12-18T11:31:53.135Z,95845.13
2022-12-18T11:34:28.995Z,95843.81
2022-12-18T11:36:55.940Z,95832.97
2022-12-18T11:39:22.521Z,95828.19
2022-12-18T11:41:49.724Z,95827.78
2022-12-18T11:44:18.996Z,95834.06
2022-12-18T11:46:46.390Z,95826.78
2022-12-18T11:49:13.153Z,95830.84
2022-12-18T11:51:39.543Z,95832.09
2022-12-18T11:54:05.882Z,95829.03
2022-12-18T11:56:32.286Z,95832.38
2022-12-18T11:58:59.045Z,95822.28
2022-12-18T12:01:25.619Z,95815.06
2022-12-18T12:03:52.046Z,95806.84
2022-12-18T12:06:18.512Z,95796.94
2022-12-18T12:08:45.149Z,95787.25
2022-12-18T12:11:11.495Z,95783.19
2022-12-18T12:13:38.107Z,95776.06
2022-12-18T12:16:04.796Z,95776.88
2022-12-18T12:18:31.266Z,95766.44
2022-12-18T12:20:57.832Z,95774.25
2022-12-18T12:23:27.636Z,95775.84
2022-12-18T12:25:54.700Z,95771.75
2022-12-18T12:28:22.121Z,95776.13
2022-12-18T12:30:48.588Z,95769.75
2022-12-18T12:33:15.326Z,95763.75
2022-12-18T12:35:41.987Z,95763.44
2022-12-18T12:38:08.332Z,95756.22
2022-12-18T12:40:52.616Z,95757.19
2022-12-18T12:43:21.143Z,95756.78
2022-12-18T12:45:50.900Z,95764.97
2022-12-18T12:48:25.026Z,95764.44
2022-12-18T12:50:52.511Z,95756.41
2022-12-18T12:53:19.040Z,95763.09
2022-12-18T12:55:45.910Z,95760.78
2022-12-18T12:58:12.913Z,95758.91
2022-12-18T13:00:39.265Z,95766.28
2022-12-18T13:03:06.622Z,95772.97
2022-12-18T13:05:34.279Z,95774.72
2022-12-18T13:08:03.251Z,95770.56
2022-12-18T13:10:30.196Z,95765.94
2022-12-18T13:12:56.887Z,95767.63
2022-12-18T13:15:24.320Z,95771.41
2022-12-18T13:17:52.219Z,95768.38
2022-12-18T13:20:19.122Z,95768.78
2022-12-18T13:22:45.459Z,95764.91
2022-12-18T13:25:11.933Z,95759.47
2022-12-18T13:27:38.587Z,95755.59
2022-12-18T13:30:06.343Z,95753.88
2022-12-18T13:32:33.464Z,95746.91
2022-12-18T13:35:01.136Z,95749.44
2022-12-18T13:37:27.648Z,95744.50
2022-12-18T13:39:54.143Z,95748.31
2022-12-18T13:42:20.719Z,95747.72
2022-12-18T13:44:47.097Z,95742.16
2022-12-18T13:47:13.579Z,95744.75
2022-12-18T13:49:40.971Z,95735.25
2022-12-18T13:52:07.316Z,95732.31
2022-12-18T13:54:33.748Z,95733.16
2022-12-18T13:57:00.126Z,95723.50
2022-12-18T13:59:26.568Z,95713.69
2022-12-18T14:01:53.923Z,95714.16
2022-12-18T14:04:20.522Z,95714.88
2022-12-18T14:06:46.945Z,95714.28
2022-12-18T14:09:20.313Z,95725.44
2022-12-18T14:11:47.998Z,95727.69
2022-12-18T14:14:14.382Z,95732.06
2022-12-18T14:16:40.950Z,95737.03
2022-12-18T14:19:15.150Z,95735.31
2022-12-18T14:21:42.206Z,95738.91
2022-12-18T14:24:08.647Z,95741.25
2022-12-18T14:26:36.036Z,95740.03
2022-12-18T14:29:02.428Z,95745.25
2022-12-18T14:31:29.773Z,95740.97
2022-12-18T14:33:56.255Z,95744.91
2022-12-18T14:36:22.713Z,95750.78
2022-12-18T14:38:49.179Z,95745.03
2022-12-18T14:41:15.618Z,95751.84
2022-12-18T14:43:43.414Z,95752.38
2022-12-18T14:46:10.210Z,95740.56
2022-12-18T14:48:37.148Z,95745.69
2022-12-18T14:51:03.532Z,95738.78
2022-12-18T14:53:30.493Z,95747.38
2022-12-18T14:55:57.313Z,95742.63
2022-12-18T14:58:24.036Z,95742.00
2022-12-18T15:00:50.774Z,95743.38
2022-12-18T15:03:17.178Z,95750.78
2022-12-18T15:05:45.247Z,95749.44
2022-12-18T15:08:13.911Z,95748.72
2022-12-18T15:10:40.500Z,95750.59
2022-12-18T15:13:06.959Z,95754.47
2022-12-18T15:15:33.604Z,95756.56
2022-12-18T15:17:59.985Z,95757.94
2022-12-18T15:20:28.423Z,95764.38
2022-12-18T15:22:54.800Z,95761.28
2022-12-18T15:25:21.173Z,95752.19
2022-12-18T15:27:47.486Z,95750.72
2022-12-18T15:30:16.103Z,95752.28
2022-12-18T15:32:42.501Z,95762.50
2022-12-18T15:35:08.843Z,95764.59
2022-12-18T15:37:35.285Z,95765.81
2022-12-18T15:40:01.954Z,95769.78
2022-12-18T15:42:28.497Z,95767.69
2022-12-18T15:44:57.950Z,95779.25
2022-12-18T15:47:24.517Z,95782.66
2022-12-18T15:49:51.078Z,95782.03
2022-12-18T15:52:19.633Z,95787.47
2022-12-18T15:54:46.141Z,95788.50
2022-12-18T15:57:14.994Z,95792.22
2022-12-18T15:59:41.596Z,95788.91
2022-12-18T16:02:08.389Z,95787.25
2022-12-18T16:04:35.245Z,95784.63
2022-12-18T16:07:19.326Z,95779.59
2022-12-18T16:09:49.304Z,95761.59
2022-12-18T16:12:15.750Z,95760.66
2022-12-18T16:14:43.102Z,95772.41
2022-12-18T16:17:09.630Z,95760.31
2022-12-18T16:19:36.000Z,95764.69
2022-12-18T16:22:02.472Z,95757.59
2022-12-18T16:24:28.950Z,95764.66
2022-12-18T16:26:55.462Z,95765.78
2022-12-18T16:29:21.999Z,95770.25
2022-12-18T16:31:50.569Z,95768.38
2022-12-18T16:34:19.650Z,95773.59
2022-12-18T16:36:48.263Z,95771.16
2022-12-18T16:39:14.603Z,95773.16
2022-12-18T16:41:42.720Z,95766.06
2022-12-18T16:44:09.117Z,95770.31
2022-12-18T16:46:35.576Z,95770.31
2022-12-18T16:49:01.983Z,95766.72
2022-12-18T16:51:28.350Z,95771.00
2022-12-18T16:53:54.814Z,95761.50
2022-12-18T16:56:21.314Z,95766.53
2022-12-18T16:58:49.702Z,95766.53
2022-12-18T17:01:16.128Z,95767.53
2022-12-18T17:03:42.907Z,95777.13
2022-12-18T17:06:11.043Z,95778.81
2022-12-18T17:08:40.437Z,95775.25
2022-12-18T17:11:07.001Z,95773.50
2022-12-18T17:13:33.490Z,95781.31
2022-12-18T17:16:00.009Z,95776.94
2022-12-18T17:18:26.415Z,95771.72
2022-12-18T17:20:52.849Z,95768.19
2022-12-18T17:23:19.338Z,95780.06
2022-12-18T17:25:45.922Z,95782.66
2022-12-18T17:28:13.045Z,95783.41
2022-12-18T17:30:39.429Z,95778.19
2022-12-18T17:33:08.939Z,95778.00
2022-12-18T17:35:35.317Z,95772.81
2022-12-18T17:38:01.661Z,95777.69
2022-12-18T17:40:28.227Z,95775.94
2022-12-18T17:42:54.623Z,95773.22
2022-12-18T17:45:21.081Z,95762.63
2022-12-18T17:47:59.722Z,95749.50
2022-12-18T17:50:26.549Z,95722.44
2022-12-18T17:52:53.365Z,95727.53
2022-12-18T17:55:19.776Z,95762.22
2022-12-18T17:57:48.184Z,95788.56
2022-12-18T18:00:14.737Z,95771.47
2022-12-18T18:02:41.407Z,95780.22
2022-12-18T18:05:10.569Z,95772.59
2022-12-18T18:07:38.500Z,95766.47
2022-12-18T18:10:05.135Z,95771.00
2022-12-18T18:12:32.116Z,95786.13
2022-12-18T18:14:58.857Z,95797.53
2022-12-18T18:17:25.589Z,95782.78
2022-12-18T18:19:51.975Z,95771.91
2022-12-18T18:22:30.997Z,95774.72
2022-12-18T18:25:04.996Z,95754.19
2022-12-18T18:27:38.264Z,95749.81
2022-12-18T18:30:05.154Z,95751.47
2022-12-18T18:32:32.322Z,95761.72
2022-12-18T18:34:58.849Z,95759.63
2022-12-18T18:37:26.405Z,95765.69
2022-12-18T18:39:52.865Z,95772.50
2022-12-18T18:42:19.310Z,95768.13
2022-12-18T18:44:48.917Z,95769.81
2022-12-18T18:47:15.814Z,95770.81
2022-12-18T18:49:42.273Z,95776.13
2022-12-18T18:52:09.835Z,95780.41
2022-12-18T18:54:36.349Z,95782.25
2022-12-18T18:57:20.014Z,95779.97
2022-12-18T18:59:47.630Z,95783.50
2022-12-18T19:02:14.569Z,95785.25
2022-12-18T19:04:45.672Z,95767.13
2022-12-18T19:07:12.878Z,95755.59
2022-12-18T19:09:41.974Z,95764.03
2022-12-18T19:12:08.311Z,95773.81
2022-12-18T19:14:34.943Z,95786.72
2022-12-18T19:17:01.427Z,95777.91
2022-12-18T19:19:30.064Z,95777.91
2022-12-18T19:21:56.631Z,95782.25
2022-12-18T19:24:23.195Z,95785.81
2022-12-18T19:26:49.823Z,95779.59
2022-12-18T19:29:16.192Z,95779.38
2022-12-18T19:31:42.767Z,95792.84
2022-12-18T19:34:09.330Z,95790.41
2022-12-18T19:36:35.903Z,95781.88
2022-12-18T19:39:04.793Z,95780.00
2022-12-18T19:41:32.837Z,95784.19
2022-12-18T19:44:02.270Z,95796.19
2022-12-18T19:46:35.829Z,95784.75
2022-12-18T19:49:02.340Z,95788.25
2022-12-18T19:51:30.109Z,95777.75
2022-12-18T19:53:58.836Z,95777.84
2022-12-18T19:56:26.830Z,95780.06
2022-12-18T19:58:53.294Z,95785.28
2022-12-18T20:01:20.228Z,95787.13
2022-12-18T20:03:51.871Z,95776.72
2022-12-18T20:06:19.268Z,95779.44
2022-12-18T20:08:46.112Z,95780.06
2022-12-18T20:11:16.357Z,95783.41
2022-12-18T20:13:43.024Z,95787.25
2022-12-18T20:16:11.524Z,95786.59
2022-12-18T20:18:37.956Z,95781.41
2022-12-18T20:21:06.264Z,95772.53
2022-12-18T20:23:34.337Z,95764.66
2022-12-18T20:26:03.630Z,95775.81
2022-12-18T20:28:32.652Z,95780.06
2022-12-18T20:30:59.326Z,95763.41
2022-12-18T20:33:25.718Z,95772.81
2022-12-18T20:35:52.085Z,95779.66
2022-12-18T20:38:19.373Z,95775.06
2022-12-18T20:40:50.115Z,95767.25
2022-12-18T20:43:17.454Z,95759.63
2022-12-18T20:45:44.082Z,95755.28
2022-12-18T20:48:12.391Z,95757.97
2022-12-18T20:50:38.738Z,95764.00
2022-12-18T20:53:05.638Z,95749.22
2022-12-18T20:55:32.374Z,95749.22
2022-12-18T20:57:58.734Z,95760.47
2022-12-18T21:00:25.197Z,95769.69
2022-12-18T21:02:53.290Z,95763.75
2022-12-18T21:05:19.793Z,95766.34
2022-12-18T21:07:46.510Z,95757.53
2022-12-18T21:10:12.992Z,95746.72
2022-12-18T21:12:42.711Z,95739.44
2022-12-18T21:15:16.153Z,95737.56
2022-12-18T21:17:45.472Z,95752.44
2022-12-18T21:20:13.273Z,95744.66
2022-12-18T21:22:44.103Z,95752.91
2022-12-18T21:25:10.439Z,95754.66
2022-12-18T21:27:39.303Z,95739.88
2022-12-18T21:30:05.651Z,95737.16
2022-12-18T21:32:33.562Z,95748.44
2022-12-18T21:35:00.367Z,95758.84
2022-12-18T21:37:26.962Z,95759.78
2022-12-18T21:39:53.741Z,95753.75
2022-12-18T21:42:20.411Z,95751.97
2022-12-18T21:44:47.097Z,95741.34
2022-12-18T21:47:22.899Z,95745.66
2022-12-18T21:49:49.793Z,95747.91
2022-12-18T21:52:16.599Z,95738.91
2022-12-18T21:54:42.963Z,95738.78
2022-12-18T21:57:10.395Z,95739.53
2022-12-18T21:59:37.015Z,95742.03
2022-12-18T22:02:03.631Z,95750.47
2022-12-18T22:04:32.452Z,95741.81
2022-12-18T22:07:01.157Z,95741.81
2022-12-18T22:09:27.978Z,95734.00
2022-12-18T22:11:54.427Z,95739.94
2022-12-18T22:14:21.828Z,95747.75
2022-12-18T22:16:51.357Z,95761.59
2022-12-18T22:19:18.414Z,95746.09
2022-12-18T22:21:45.539Z,95746.81
2022-12-18T22:24:13.065Z,95752.88
2022-12-18T22:26:40.479Z,95750.78
2022-12-18T22:29:07.003Z,95749.94
2022-12-18T22:31:33.512Z,95754.34
2022-12-18T22:34:00.109Z,95762.97
2022-12-18T22:36:26.705Z,95778.19
2022-12-18T22:38:53.100Z,95774.75
2022-12-18T22:41:20.191Z,95766.63
2022-12-18T22:43:46.751Z,95770.78
2022-12-18T22:46:15.573Z,95765.78
2022-12-18T22:48:42.148Z,95757.69
2022-12-18T22:51:08.943Z,95752.25
2022-12-18T22:53:35.857Z,95756.44
2022-12-18T22:56:02.327Z,95752.69
2022-12-18T22:58:28.900Z,95754.25
2022-12-18T23:00:55.275Z,95756.31
2022-12-18T23:03:21.746Z,95751.41
2022-12-18T23:05:49.115Z,95748.00
2022-12-18T23:08:16.913Z,95747.34
2022-12-18T23:10:44.087Z,95744.66
2022-12-18T23:13:10.483Z,95746.19
2022-12-18T23:15:36.902Z,95751.22
2022-12-18T23:18:03.272Z,95752.69
2022-12-18T23:20:30.743Z,95744.13
2022-12-18T23:22:57.224Z,95750.09
2022-12-18T23:25:23.786Z,95753.31
2022-12-18T23:27:50.208Z,95741.13
2022-12-18T23:30:19.211Z,95748.00
2022-12-18T23:32:46.807Z,95747.25
2022-12-18T23:35:15.578Z,95747.78
2022-12-18T23:37:58.849Z,95747.88
2022-12-18T23:40:26.259Z,95755.81
2022-12-18T23:42:52.714Z,95747.66
2022-12-18T23:45:19.073Z,95749.53
2022-12-18T23:47:45.441Z,95760.63
2022-12-18T23:50:14.486Z,95746.84
2022-12-18T23:52:41.215Z,95742.88
2022-12-18T23:55:07.969Z,95739.44
2022-12-18T23:57:34.439Z,95743.59
